sensor_id;sensor_type;location;lat;lon;timestamp;pressure;altitude;pressure_sealevel;temperature;humidity
55171;BME280;41060;47.510;8.680;2022-09-04T00:00:45;97102.19;;;19.76;52.82
55171;BME280;41060;47.510;8.680;2022-09-04T00:03:24;97104.53;;;19.79;52.71
55171;BME280;41060;47.510;8.680;2022-09-04T00:05:56;97101.06;;;19.71;52.77
55171;BME280;41060;47.510;8.680;2022-09-04T00:08:38;97101.22;;;19.69;52.81
55171;BME280;41060;47.510;8.680;2022-09-04T00:11:22;97097.38;;;19.72;52.43
55171;BME280;41060;47.510;8.680;2022-09-04T00:13:55;97094.28;;;19.75;52.40
55171;BME280;41060;47.510;8.680;2022-09-04T00:16:27;97105.75;;;19.69;52.63
55171;BME280;41060;47.510;8.680;2022-09-04T00:18:59;97107.66;;;19.60;52.79
55171;BME280;41060;47.510;8.680;2022-09-04T00:21:33;97110.72;;;19.57;52.96
55171;BME280;41060;47.510;8.680;2022-09-04T00:24:04;97109.22;;;19.54;52.96
55171;BME280;41060;47.510;8.680;2022-09-04T00:26:42;97103.47;;;19.35;53.45
55171;BME280;41060;47.510;8.680;2022-09-04T00:29:19;97111.72;;;19.25;53.49
55171;BME280;41060;47.510;8.680;2022-09-04T00:31:52;97112.44;;;19.19;53.62
55171;BME280;41060;47.510;8.680;2022-09-04T00:34:35;97114.69;;;18.99;54.20
55171;BME280;41060;47.510;8.680;2022-09-04T00:37:06;97106.38;;;18.86;54.32
55171;BME280;41060;47.510;8.680;2022-09-04T00:39:39;97118.25;;;18.92;54.06
55171;BME280;41060;47.510;8.680;2022-09-04T00:42:21;97114.53;;;19.01;53.87
55171;BME280;41060;47.510;8.680;2022-09-04T00:45:03;97110.28;;;19.06;53.86
55171;BME280;41060;47.510;8.680;2022-09-04T00:48:10;97109.97;;;19.09;53.75
55171;BME280;41060;47.510;8.680;2022-09-04T00:54:09;97119.78;;;19.25;53.58
55171;BME280;41060;47.510;8.680;2022-09-04T01:00:07;97125.63;;;19.29;53.59
55171;BME280;41060;47.510;8.680;2022-09-04T01:02:47;97123.84;;;19.21;53.52
55171;BME280;41060;47.510;8.680;2022-09-04T01:05:30;97120.81;;;19.16;53.85
55171;BME280;41060;47.510;8.680;2022-09-04T01:08:09;97131.50;;;18.93;54.33
55171;BME280;41060;47.510;8.680;2022-09-04T01:10:47;97137.41;;;18.80;54.26
55171;BME280;41060;47.510;8.680;2022-09-04T01:13:26;97132.59;;;18.68;54.51
55171;BME280;41060;47.510;8.680;2022-09-04T01:16:04;97134.09;;;18.70;54.39
55171;BME280;41060;47.510;8.680;2022-09-04T01:18:38;97134.09;;;18.70;54.45
55171;BME280;41060;47.510;8.680;2022-09-04T01:21:23;97132.59;;;18.76;54.19
55171;BME280;41060;47.510;8.680;2022-09-04T01:24:06;97131.38;;;18.78;54.14
55171;BME280;41060;47.510;8.680;2022-09-04T01:26:45;97137.78;;;18.61;54.62
55171;BME280;41060;47.510;8.680;2022-09-04T01:29:21;97133.09;;;18.55;54.78
55171;BME280;41060;47.510;8.680;2022-09-04T01:31:57;97111.66;;;18.47;54.35
55171;BME280;41060;47.510;8.680;2022-09-04T01:34:37;97137.13;;;18.51;54.79
55171;BME280;41060;47.510;8.680;2022-09-04T01:37:19;97139.13;;;18.49;54.78
55171;BME280;41060;47.510;8.680;2022-09-04T01:40:02;97135.94;;;18.70;55.46
55171;BME280;41060;47.510;8.680;2022-09-04T01:42:41;97138.59;;;18.78;54.40
55171;BME280;41060;47.510;8.680;2022-09-04T01:45:11;97146.88;;;18.99;53.57
55171;BME280;41060;47.510;8.680;2022-09-04T01:47:42;97152.69;;;19.19;52.87
55171;BME280;41060;47.510;8.680;2022-09-04T01:50:12;97150.72;;;19.13;52.76
55171;BME280;41060;47.510;8.680;2022-09-04T01:52:52;97158.22;;;19.17;52.79
55171;BME280;41060;47.510;8.680;2022-09-04T01:55:30;97156.13;;;19.36;52.43
55171;BME280;41060;47.510;8.680;2022-09-04T01:58:13;97150.47;;;19.23;52.41
55171;BME280;41060;47.510;8.680;2022-09-04T02:00:50;97152.81;;;19.26;52.46
55171;BME280;41060;47.510;8.680;2022-09-04T02:03:25;97148.09;;;19.36;51.87
55171;BME280;41060;47.510;8.680;2022-09-04T02:06:01;97146.31;;;19.51;52.55
55171;BME280;41060;47.510;8.680;2022-09-04T02:08:41;97147.84;;;19.76;52.05
55171;BME280;41060;47.510;8.680;2022-09-04T02:11:14;97143.66;;;19.96;51.46
55171;BME280;41060;47.510;8.680;2022-09-04T02:13:57;97141.91;;;20.04;51.16
55171;BME280;41060;47.510;8.680;2022-09-04T02:16:38;97152.59;;;20.12;51.13
55171;BME280;41060;47.510;8.680;2022-09-04T02:19:19;97152.94;;;20.17;51.01
55171;BME280;41060;47.510;8.680;2022-09-04T02:21:55;97163.44;;;20.26;50.37
55171;BME280;41060;47.510;8.680;2022-09-04T02:24:29;97156.31;;;20.33;50.67
55171;BME280;41060;47.510;8.680;2022-09-04T02:27:06;97162.53;;;20.34;49.92
55171;BME280;41060;47.510;8.680;2022-09-04T02:29:39;97158.28;;;20.40;49.80
55171;BME280;41060;47.510;8.680;2022-09-04T02:32:13;97166.91;;;20.35;49.74
55171;BME280;41060;47.510;8.680;2022-09-04T02:34:49;97162.19;;;20.37;49.31
55171;BME280;41060;47.510;8.680;2022-09-04T02:37:27;97163.84;;;20.38;49.61
55171;BME280;41060;47.510;8.680;2022-09-04T02:40:04;97165.16;;;20.42;49.67
55171;BME280;41060;47.510;8.680;2022-09-04T02:42:42;97163.00;;;20.38;49.33
55171;BME280;41060;47.510;8.680;2022-09-04T02:45:18;97165.81;;;20.44;49.58
55171;BME280;41060;47.510;8.680;2022-09-04T02:47:52;97172.31;;;20.50;49.41
55171;BME280;41060;47.510;8.680;2022-09-04T02:50:35;97164.78;;;20.45;49.14
55171;BME280;41060;47.510;8.680;2022-09-04T02:53:15;97173.28;;;20.34;48.82
55171;BME280;41060;47.510;8.680;2022-09-04T02:55:56;97176.81;;;20.34;49.90
55171;BME280;41060;47.510;8.680;2022-09-04T02:58:32;97174.50;;;20.31;48.79
55171;BME280;41060;47.510;8.680;2022-09-04T03:01:10;97167.44;;;20.30;49.86
55171;BME280;41060;47.510;8.680;2022-09-04T03:03:43;97178.31;;;20.37;49.48
55171;BME280;41060;47.510;8.680;2022-09-04T03:06:17;97176.06;;;20.41;49.57
55171;BME280;41060;47.510;8.680;2022-09-04T03:08:52;97183.31;;;20.40;49.46
55171;BME280;41060;47.510;8.680;2022-09-04T03:11:25;97176.06;;;20.41;49.42
55171;BME280;41060;47.510;8.680;2022-09-04T03:14:02;97183.13;;;20.42;49.34
55171;BME280;41060;47.510;8.680;2022-09-04T03:16:37;97183.59;;;20.30;49.20
55171;BME280;41060;47.510;8.680;2022-09-04T03:19:12;97160.00;;;19.95;49.12
55171;BME280;41060;47.510;8.680;2022-09-04T03:21:47;97188.03;;;20.15;49.91
55171;BME280;41060;47.510;8.680;2022-09-04T03:24:24;97190.25;;;20.12;49.21
55171;BME280;41060;47.510;8.680;2022-09-04T03:26:55;97187.94;;;20.09;48.99
55171;BME280;41060;47.510;8.680;2022-09-04T03:29:29;97193.66;;;19.83;49.63
55171;BME280;41060;47.510;8.680;2022-09-04T03:32:09;97196.63;;;19.88;50.65
55171;BME280;41060;47.510;8.680;2022-09-04T03:34:46;97191.84;;;19.98;50.42
55171;BME280;41060;47.510;8.680;2022-09-04T03:37:37;97190.97;;;20.06;50.12
55171;BME280;41060;47.510;8.680;2022-09-04T03:40:17;97197.78;;;20.16;49.66
55171;BME280;41060;47.510;8.680;2022-09-04T03:43:01;97190.00;;;20.21;49.57
55171;BME280;41060;47.510;8.680;2022-09-04T03:45:38;97194.03;;;20.25;49.58
55171;BME280;41060;47.510;8.680;2022-09-04T03:48:24;97191.75;;;20.14;48.72
55171;BME280;41060;47.510;8.680;2022-09-04T03:50:54;97186.84;;;19.72;50.44
55171;BME280;41060;47.510;8.680;2022-09-04T03:53:29;97202.13;;;19.33;51.21
55171;BME280;41060;47.510;8.680;2022-09-04T03:56:22;97208.25;;;19.10;52.57
55171;BME280;41060;47.510;8.680;2022-09-04T03:59:00;97207.03;;;19.21;51.95
55171;BME280;41060;47.510;8.680;2022-09-04T04:01:37;97217.19;;;18.87;52.80
55171;BME280;41060;47.510;8.680;2022-09-04T04:07:08;97220.38;;;18.98;53.10
55171;BME280;41060;47.510;8.680;2022-09-04T04:09:48;97214.44;;;19.19;52.54
55171;BME280;41060;47.510;8.680;2022-09-04T04:12:32;97211.00;;;19.33;52.09
55171;BME280;41060;47.510;8.680;2022-09-04T04:15:14;97208.19;;;19.66;51.12
55171;BME280;41060;47.510;8.680;2022-09-04T04:17:54;97215.06;;;19.68;50.89
55171;BME280;41060;47.510;8.680;2022-09-04T04:20:33;97213.75;;;19.64;50.56
55171;BME280;41060;47.510;8.680;2022-09-04T04:23:28;97216.22;;;19.66;50.81
55171;BME280;41060;47.510;8.680;2022-09-04T04:26:04;97216.41;;;19.72;50.22
55171;BME280;41060;47.510;8.680;2022-09-04T04:28:52;97234.88;;;19.67;50.54
55171;BME280;41060;47.510;8.680;2022-09-04T04:31:31;97232.56;;;19.64;50.08
55171;BME280;41060;47.510;8.680;2022-09-04T04:34:08;97236.94;;;19.02;51.40
55171;BME280;41060;47.510;8.680;2022-09-04T04:36:41;97241.69;;;18.43;53.19
55171;BME280;41060;47.510;8.680;2022-09-04T04:39:25;97243.72;;;18.17;53.98
55171;BME280;41060;47.510;8.680;2022-09-04T04:42:06;97252.72;;;17.99;54.44
55171;BME280;41060;47.510;8.680;2022-09-04T04:44:45;97253.38;;;17.85;55.07
55171;BME280;41060;47.510;8.680;2022-09-04T04:47:49;97261.56;;;17.84;55.28
55171;BME280;41060;47.510;8.680;2022-09-04T04:50:27;97258.16;;;17.82;54.90
55171;BME280;41060;47.510;8.680;2022-09-04T04:53:04;97219.75;;;18.07;53.55
55171;BME280;41060;47.510;8.680;2022-09-04T04:55:42;97252.25;;;18.45;53.13
55171;BME280;41060;47.510;8.680;2022-09-04T04:58:27;97261.16;;;18.53;53.41
55171;BME280;41060;47.510;8.680;2022-09-04T05:01:07;97231.28;;;18.56;52.94
55171;BME280;41060;47.510;8.680;2022-09-04T05:03:47;97271.84;;;18.94;51.95
55171;BME280;41060;47.510;8.680;2022-09-04T05:06:25;97269.16;;;19.02;52.54
55171;BME280;41060;47.510;8.680;2022-09-04T05:09:01;97279.84;;;19.18;52.02
55171;BME280;41060;47.510;8.680;2022-09-04T05:11:38;97275.94;;;19.29;51.65
55171;BME280;41060;47.510;8.680;2022-09-04T05:14:19;97283.97;;;19.37;51.45
55171;BME280;41060;47.510;8.680;2022-09-04T05:16:54;97288.50;;;19.36;51.51
55171;BME280;41060;47.510;8.680;2022-09-04T05:19:29;97278.97;;;19.34;51.21
55171;BME280;41060;47.510;8.680;2022-09-04T05:22:04;97291.44;;;19.18;51.38
55171;BME280;41060;47.510;8.680;2022-09-04T05:24:37;97271.50;;;18.64;52.29
55171;BME280;41060;47.510;8.680;2022-09-04T05:27:24;97306.91;;;18.60;53.25
55171;BME280;41060;47.510;8.680;2022-09-04T05:30:02;97309.72;;;18.42;53.78
55171;BME280;41060;47.510;8.680;2022-09-04T05:32:35;97314.22;;;18.09;54.55
55171;BME280;41060;47.510;8.680;2022-09-04T05:35:10;97315.22;;;18.16;55.26
55171;BME280;41060;47.510;8.680;2022-09-04T05:37:44;97323.47;;;18.47;54.86
55171;BME280;41060;47.510;8.680;2022-09-04T05:40:19;97322.28;;;18.50;54.23
55171;BME280;41060;47.510;8.680;2022-09-04T05:43:01;97329.31;;;18.34;55.08
55171;BME280;41060;47.510;8.680;2022-09-04T05:45:40;97332.84;;;18.51;54.75
55171;BME280;41060;47.510;8.680;2022-09-04T05:48:17;97338.72;;;18.63;53.32
55171;BME280;41060;47.510;8.680;2022-09-04T05:50:55;97336.25;;;18.77;54.04
55171;BME280;41060;47.510;8.680;2022-09-04T05:53:39;97335.91;;;18.97;53.69
55171;BME280;41060;47.510;8.680;2022-09-04T05:56:48;97340.91;;;19.16;52.93
55171;BME280;41060;47.510;8.680;2022-09-04T05:59:43;97336.88;;;19.28;53.11
55171;BME280;41060;47.510;8.680;2022-09-04T06:02:29;97338.88;;;19.34;51.95
55171;BME280;41060;47.510;8.680;2022-09-04T06:05:08;97347.63;;;19.28;51.56
55171;BME280;41060;47.510;8.680;2022-09-04T06:07:47;97345.25;;;19.25;52.95
55171;BME280;41060;47.510;8.680;2022-09-04T06:10:23;97332.13;;;19.38;52.99
55171;BME280;41060;47.510;8.680;2022-09-04T06:16:08;97334.25;;;19.67;51.90
55171;BME280;41060;47.510;8.680;2022-09-04T06:21:57;97340.72;;;19.89;51.66
55171;BME280;41060;47.510;8.680;2022-09-04T06:24:35;97340.19;;;20.02;51.32
55171;BME280;41060;47.510;8.680;2022-09-04T06:30:07;97354.69;;;20.23;50.47
55171;BME280;41060;47.510;8.680;2022-09-04T06:33:05;97359.31;;;20.38;50.34
55171;BME280;41060;47.510;8.680;2022-09-04T06:35:57;97355.03;;;20.51;50.31
55171;BME280;41060;47.510;8.680;2022-09-04T06:38:53;97351.91;;;20.62;50.36
55171;BME280;41060;47.510;8.680;2022-09-04T06:41:39;97344.66;;;20.63;50.21
55171;BME280;41060;47.510;8.680;2022-09-04T06:44:15;97362.00;;;20.38;50.42
55171;BME280;41060;47.510;8.680;2022-09-04T06:46:54;97361.09;;;20.14;51.33
55171;BME280;41060;47.510;8.680;2022-09-04T06:49:34;97368.66;;;19.80;52.62
55171;BME280;41060;47.510;8.680;2022-09-04T06:52:13;97366.06;;;19.47;54.39
55171;BME280;41060;47.510;8.680;2022-09-04T06:54:51;97367.41;;;19.35;54.42
55171;BME280;41060;47.510;8.680;2022-09-04T06:57:45;97360.91;;;19.13;55.32
55171;BME280;41060;47.510;8.680;2022-09-04T07:00:17;97368.78;;;18.91;55.79
55171;BME280;41060;47.510;8.680;2022-09-04T07:03:12;97366.41;;;18.71;57.02
55171;BME280;41060;47.510;8.680;2022-09-04T07:05:51;97378.50;;;18.67;57.56
55171;BME280;41060;47.510;8.680;2022-09-04T07:08:34;97373.41;;;18.48;57.88
55171;BME280;41060;47.510;8.680;2022-09-04T07:11:17;97379.41;;;18.34;58.36
55171;BME280;41060;47.510;8.680;2022-09-04T07:14:21;97382.47;;;18.39;58.54
55171;BME280;41060;47.510;8.680;2022-09-04T07:17:02;97381.44;;;18.48;58.22
55171;BME280;41060;47.510;8.680;2022-09-04T07:19:50;97384.13;;;18.48;58.27
55171;BME280;41060;47.510;8.680;2022-09-04T07:25:19;97388.31;;;18.42;58.40
55171;BME280;41060;47.510;8.680;2022-09-04T07:28:00;97391.97;;;18.33;59.11
55171;BME280;41060;47.510;8.680;2022-09-04T07:30:35;97397.16;;;18.35;59.29
55171;BME280;41060;47.510;8.680;2022-09-04T07:33:08;97399.22;;;18.57;58.25
55171;BME280;41060;47.510;8.680;2022-09-04T07:35:42;97407.84;;;18.85;57.51
55171;BME280;41060;47.510;8.680;2022-09-04T07:38:18;97403.97;;;18.71;57.46
55171;BME280;41060;47.510;8.680;2022-09-04T07:40:54;97411.38;;;18.86;57.43
55171;BME280;41060;47.510;8.680;2022-09-04T07:43:30;97414.56;;;18.89;57.62
55171;BME280;41060;47.510;8.680;2022-09-04T07:46:08;97411.88;;;18.89;58.27
55171;BME280;41060;47.510;8.680;2022-09-04T07:48:40;97408.38;;;19.21;57.23
55171;BME280;41060;47.510;8.680;2022-09-04T07:51:12;97406.00;;;19.26;56.62
55171;BME280;41060;47.510;8.680;2022-09-04T07:54:03;97424.13;;;19.56;55.97
55171;BME280;41060;47.510;8.680;2022-09-04T07:59:54;97422.88;;;19.75;55.49
55171;BME280;41060;47.510;8.680;2022-09-04T08:02:35;97415.53;;;20.16;54.76
55171;BME280;41060;47.510;8.680;2022-09-04T08:05:22;97402.22;;;20.31;54.34
55171;BME280;41060;47.510;8.680;2022-09-04T08:08:15;97420.91;;;20.16;54.23
55171;BME280;41060;47.510;8.680;2022-09-04T08:10:59;97421.91;;;20.23;54.60
55171;BME280;41060;47.510;8.680;2022-09-04T08:16:40;97414.22;;;20.74;53.37
55171;BME280;41060;47.510;8.680;2022-09-04T08:19:23;97419.94;;;20.71;53.55
55171;BME280;41060;47.510;8.680;2022-09-04T08:21:56;97415.00;;;20.83;52.81
55171;BME280;41060;47.510;8.680;2022-09-04T08:24:48;97412.41;;;21.20;51.94
55171;BME280;41060;47.510;8.680;2022-09-04T08:27:34;97417.13;;;21.56;50.73
55171;BME280;41060;47.510;8.680;2022-09-04T08:30:08;97416.47;;;21.68;49.68
55171;BME280;41060;47.510;8.680;2022-09-04T08:32:59;97416.84;;;21.65;49.89
55171;BME280;41060;47.510;8.680;2022-09-04T08:35:35;97427.75;;;21.34;51.28
55171;BME280;41060;47.510;8.680;2022-09-04T08:38:21;97422.94;;;21.44;51.07
55171;BME280;41060;47.510;8.680;2022-09-04T08:41:29;97426.53;;;21.37;51.74
55171;BME280;41060;47.510;8.680;2022-09-04T08:44:31;97428.22;;;21.38;51.05
55171;BME280;41060;47.510;8.680;2022-09-04T08:47:44;97434.66;;;21.66;50.83
55171;BME280;41060;47.510;8.680;2022-09-04T08:50:48;97432.94;;;21.73;49.99
55171;BME280;41060;47.510;8.680;2022-09-04T08:53:47;97401.59;;;21.58;50.66
55171;BME280;41060;47.510;8.680;2022-09-04T08:56:26;97429.53;;;21.94;51.81
55171;BME280;41060;47.510;8.680;2022-09-04T08:59:42;97427.75;;;22.31;50.03
55171;BME280;41060;47.510;8.680;2022-09-04T09:05:46;97427.22;;;22.92;48.53
55171;BME280;41060;47.510;8.680;2022-09-04T09:08:31;97425.03;;;23.02;47.35
55171;BME280;41060;47.510;8.680;2022-09-04T09:11:25;97432.00;;;22.90;48.44
55171;BME280;41060;47.510;8.680;2022-09-04T09:14:21;97428.34;;;22.98;47.91
55171;BME280;41060;47.510;8.680;2022-09-04T09:17:09;97429.28;;;22.69;48.15
55171;BME280;41060;47.510;8.680;2022-09-04T09:19:45;97416.88;;;22.75;47.96
55171;BME280;41060;47.510;8.680;2022-09-04T09:22:31;97396.31;;;22.74;47.54
55171;BME280;41060;47.510;8.680;2022-09-04T09:25:23;97412.50;;;22.95;48.89
55171;BME280;41060;47.510;8.680;2022-09-04T09:28:28;97415.47;;;23.43;47.45
55171;BME280;41060;47.510;8.680;2022-09-04T09:31:24;97424.59;;;23.69;47.69
55171;BME280;41060;47.510;8.680;2022-09-04T09:34:41;97419.00;;;23.99;45.77
55171;BME280;41060;47.510;8.680;2022-09-04T09:46:48;97411.56;;;24.07;44.65
55171;BME280;41060;47.510;8.680;2022-09-04T09:50:12;97412.50;;;23.87;46.00
55171;BME280;41060;47.510;8.680;2022-09-04T09:53:23;97402.34;;;24.36;45.86
55171;BME280;41060;47.510;8.680;2022-09-04T09:56:33;97409.56;;;24.70;45.81
55171;BME280;41060;47.510;8.680;2022-09-04T10:05:37;97405.94;;;25.24;42.19
55171;BME280;41060;47.510;8.680;2022-09-04T10:08:35;97403.00;;;25.12;42.06
55171;BME280;41060;47.510;8.680;2022-09-04T10:11:31;97399.78;;;24.76;43.03
55171;BME280;41060;47.510;8.680;2022-09-04T10:26:31;97371.75;;;25.49;43.70
55171;BME280;41060;47.510;8.680;2022-09-04T10:29:27;97381.72;;;25.75;42.25
55171;BME280;41060;47.510;8.680;2022-09-04T10:32:21;97383.56;;;26.01;42.10
55171;BME280;41060;47.510;8.680;2022-09-04T10:35:13;97386.31;;;25.75;41.16
55171;BME280;41060;47.510;8.680;2022-09-04T10:37:55;97390.47;;;25.84;41.74
55171;BME280;41060;47.510;8.680;2022-09-04T10:40:38;97392.16;;;25.85;43.00
55171;BME280;41060;47.510;8.680;2022-09-04T10:43:43;97374.16;;;26.10;41.69
55171;BME280;41060;47.510;8.680;2022-09-04T10:46:23;97382.13;;;26.50;40.81
55171;BME280;41060;47.510;8.680;2022-09-04T10:49:27;97380.22;;;26.57;38.85
55171;BME280;41060;47.510;8.680;2022-09-04T10:55:46;97378.47;;;26.75;39.37
55171;BME280;41060;47.510;8.680;2022-09-04T10:58:35;97379.47;;;26.81;38.93
55171;BME280;41060;47.510;8.680;2022-09-04T11:01:47;97371.44;;;26.99;37.95
55171;BME280;41060;47.510;8.680;2022-09-04T11:04:51;97371.91;;;27.21;37.35
55171;BME280;41060;47.510;8.680;2022-09-04T11:07:44;97379.47;;;26.81;39.02
55171;BME280;41060;47.510;8.680;2022-09-04T11:10:22;97368.47;;;26.69;40.49
55171;BME280;41060;47.510;8.680;2022-09-04T11:16:08;97354.41;;;26.41;41.27
55171;BME280;41060;47.510;8.680;2022-09-04T11:31:06;97354.56;;;27.15;39.28
55171;BME280;41060;47.510;8.680;2022-09-04T11:34:07;97353.13;;;27.38;38.39
55171;BME280;41060;47.510;8.680;2022-09-04T11:40:02;97344.91;;;27.69;38.10
55171;BME280;41060;47.510;8.680;2022-09-04T11:42:39;97347.25;;;28.09;37.74
55171;BME280;41060;47.510;8.680;2022-09-04T11:45:23;97352.31;;;28.23;36.70
55171;BME280;41060;47.510;8.680;2022-09-04T11:48:01;97346.81;;;28.42;37.97
55171;BME280;41060;47.510;8.680;2022-09-04T11:50:46;97359.97;;;27.72;35.97
55171;BME280;41060;47.510;8.680;2022-09-04T11:53:35;97346.84;;;27.44;37.11
55171;BME280;41060;47.510;8.680;2022-09-04T11:56:20;97340.72;;;27.23;38.08
55171;BME280;41060;47.510;8.680;2022-09-04T11:58:59;97353.84;;;27.76;37.92
55171;BME280;41060;47.510;8.680;2022-09-04T12:02:00;97344.41;;;28.33;35.03
55171;BME280;41060;47.510;8.680;2022-09-04T12:04:42;97342.88;;;28.56;34.19
55171;BME280;41060;47.510;8.680;2022-09-04T12:07:28;97356.81;;;28.78;34.09
55171;BME280;41060;47.510;8.680;2022-09-04T12:10:21;97346.06;;;29.13;33.86
55171;BME280;41060;47.510;8.680;2022-09-04T12:13:05;97352.34;;;29.25;34.00
55171;BME280;41060;47.510;8.680;2022-09-04T12:15:42;97350.13;;;29.57;32.63
55171;BME280;41060;47.510;8.680;2022-09-04T12:18:52;97347.84;;;29.19;32.77
55171;BME280;41060;47.510;8.680;2022-09-04T12:24:55;97347.25;;;28.87;33.55
55171;BME280;41060;47.510;8.680;2022-09-04T12:27:52;97342.09;;;29.08;33.10
55171;BME280;41060;47.510;8.680;2022-09-04T12:30:24;97343.66;;;29.04;33.81
55171;BME280;41060;47.510;8.680;2022-09-04T12:33:28;97342.19;;;29.43;32.59
55171;BME280;41060;47.510;8.680;2022-09-04T12:39:29;97342.25;;;30.30;32.55
55171;BME280;41060;47.510;8.680;2022-09-04T12:42:09;97324.69;;;30.26;32.46
55171;BME280;41060;47.510;8.680;2022-09-04T12:44:49;97328.84;;;30.29;32.53
55171;BME280;41060;47.510;8.680;2022-09-04T12:47:32;97325.88;;;30.30;31.97
55171;BME280;41060;47.510;8.680;2022-09-04T12:50:24;97333.91;;;29.73;31.60
55171;BME280;41060;47.510;8.680;2022-09-04T12:53:07;97329.22;;;30.20;32.80
55171;BME280;41060;47.510;8.680;2022-09-04T12:55:44;97335.50;;;30.33;32.88
55171;BME280;41060;47.510;8.680;2022-09-04T12:58:21;97326.63;;;30.02;31.54
55171;BME280;41060;47.510;8.680;2022-09-04T13:01:01;97327.81;;;30.06;32.69
55171;BME280;41060;47.510;8.680;2022-09-04T13:03:37;97334.66;;;30.32;31.70
55171;BME280;41060;47.510;8.680;2022-09-04T13:06:18;97321.47;;;30.29;31.01
55171;BME280;41060;47.510;8.680;2022-09-04T13:09:03;97334.97;;;29.96;31.49
55171;BME280;41060;47.510;8.680;2022-09-04T13:11:45;97318.91;;;29.99;32.19
55171;BME280;41060;47.510;8.680;2022-09-04T13:14:36;97338.63;;;30.53;31.91
55171;BME280;41060;47.510;8.680;2022-09-04T13:17:13;97329.06;;;30.67;31.23
55171;BME280;41060;47.510;8.680;2022-09-04T13:19:49;97341.66;;;30.28;31.68
55171;BME280;41060;47.510;8.680;2022-09-04T13:22:31;97343.00;;;30.02;31.71
55171;BME280;41060;47.510;8.680;2022-09-04T13:25:07;97343.34;;;30.17;32.35
55171;BME280;41060;47.510;8.680;2022-09-04T13:27:47;97326.03;;;30.52;32.21
55171;BME280;41060;47.510;8.680;2022-09-04T13:30:19;97338.63;;;30.81;30.43
55171;BME280;41060;47.510;8.680;2022-09-04T13:33:22;97320.84;;;30.95;31.19
55171;BME280;41060;47.510;8.680;2022-09-04T13:36:12;97334.91;;;30.59;30.37
55171;BME280;41060;47.510;8.680;2022-09-04T13:44:55;97327.19;;;30.56;29.33
55171;BME280;41060;47.510;8.680;2022-09-04T13:47:25;97313.00;;;30.42;29.92
55171;BME280;41060;47.510;8.680;2022-09-04T13:50:02;97328.28;;;30.83;29.77
55171;BME280;41060;47.510;8.680;2022-09-04T13:52:35;97325.56;;;31.00;30.59
55171;BME280;41060;47.510;8.680;2022-09-04T13:55:08;97325.94;;;31.37;29.72
55171;BME280;41060;47.510;8.680;2022-09-04T13:57:39;97323.06;;;31.44;29.47
55171;BME280;41060;47.510;8.680;2022-09-04T14:00:13;97323.13;;;31.49;28.95
55171;BME280;41060;47.510;8.680;2022-09-04T14:02:41;97310.09;;;31.72;28.37
55171;BME280;41060;47.510;8.680;2022-09-04T14:05:12;97322.88;;;32.27;27.62
55171;BME280;41060;47.510;8.680;2022-09-04T14:07:42;97321.06;;;32.60;27.09
55171;BME280;41060;47.510;8.680;2022-09-04T14:10:15;97329.66;;;32.90;26.26
55171;BME280;41060;47.510;8.680;2022-09-04T14:12:46;97327.19;;;32.67;26.89
55171;BME280;41060;47.510;8.680;2022-09-04T14:15:42;97324.72;;;32.43;26.91
55171;BME280;41060;47.510;8.680;2022-09-04T14:18:34;97321.97;;;32.00;27.51
55171;BME280;41060;47.510;8.680;2022-09-04T14:21:09;97319.41;;;31.93;27.38
55171;BME280;41060;47.510;8.680;2022-09-04T14:23:45;97316.84;;;32.25;28.28
55171;BME280;41060;47.510;8.680;2022-09-04T14:26:25;97319.44;;;32.37;27.45
55171;BME280;41060;47.510;8.680;2022-09-04T14:28:59;97326.69;;;32.26;26.84
55171;BME280;41060;47.510;8.680;2022-09-04T14:31:42;97327.69;;;32.20;26.89
55171;BME280;41060;47.510;8.680;2022-09-04T14:34:16;97326.97;;;32.25;26.61
55171;BME280;41060;47.510;8.680;2022-09-04T14:36:57;97329.97;;;31.85;27.46
55171;BME280;41060;47.510;8.680;2022-09-04T14:39:43;97319.22;;;31.45;27.65
55171;BME280;41060;47.510;8.680;2022-09-04T14:42:28;97304.03;;;31.37;28.12
55171;BME280;41060;47.510;8.680;2022-09-04T14:45:10;97322.53;;;31.63;27.88
55171;BME280;41060;47.510;8.680;2022-09-04T14:47:43;97317.25;;;31.40;27.08
55171;BME280;41060;47.510;8.680;2022-09-04T14:50:13;97323.38;;;31.47;27.78
55171;BME280;41060;47.510;8.680;2022-09-04T14:52:45;97318.97;;;31.46;27.44
55171;BME280;41060;47.510;8.680;2022-09-04T14:55:15;97316.53;;;31.66;26.47
55171;BME280;41060;47.510;8.680;2022-09-04T14:57:47;97309.59;;;31.59;26.95
55171;BME280;41060;47.510;8.680;2022-09-04T15:00:17;97309.13;;;31.28;27.60
55171;BME280;41060;47.510;8.680;2022-09-04T15:02:53;97316.03;;;31.02;27.74
55171;BME280;41060;47.510;8.680;2022-09-04T15:05:24;97297.56;;;31.10;28.34
55171;BME280;41060;47.510;8.680;2022-09-04T15:07:56;97314.66;;;31.50;28.33
55171;BME280;41060;47.510;8.680;2022-09-04T15:10:28;97316.00;;;31.48;27.61
55171;BME280;41060;47.510;8.680;2022-09-04T15:13:14;97298.91;;;31.24;27.10
55171;BME280;41060;47.510;8.680;2022-09-04T15:15:45;97309.78;;;31.35;26.71
55171;BME280;41060;47.510;8.680;2022-09-04T15:18:20;97325.50;;;31.12;27.58
55171;BME280;41060;47.510;8.680;2022-09-04T15:20:54;97312.03;;;31.22;27.00
55171;BME280;41060;47.510;8.680;2022-09-04T15:23:26;97306.94;;;31.30;27.37
55171;BME280;41060;47.510;8.680;2022-09-04T15:26:04;97304.28;;;31.52;27.25
55171;BME280;41060;47.510;8.680;2022-09-04T15:28:39;97308.03;;;31.13;26.98
55171;BME280;41060;47.510;8.680;2022-09-04T15:31:11;97309.75;;;31.02;27.54
55171;BME280;41060;47.510;8.680;2022-09-04T15:33:46;97307.78;;;31.48;26.55
55171;BME280;41060;47.510;8.680;2022-09-04T15:36:15;97283.75;;;31.33;26.37
55171;BME280;41060;47.510;8.680;2022-09-04T15:38:47;97310.56;;;31.69;26.57
55171;BME280;41060;47.510;8.680;2022-09-04T15:41:17;97307.06;;;31.91;26.37
55171;BME280;41060;47.510;8.680;2022-09-04T15:43:50;97306.16;;;32.07;26.63
55171;BME280;41060;47.510;8.680;2022-09-04T15:46:23;97302.84;;;32.05;27.04
55171;BME280;41060;47.510;8.680;2022-09-04T15:48:58;97302.31;;;32.25;27.56